Aviation Digital Data Service (ADDS)

Output produced by METARs form (1118 UTC 31 July 2015)
found at http://www.aviationweather.gov/adds/metars/
 
KCRQ 311053Z AUTO 00000KT 8SM OVC008 21/19 A3000 RMK AO2 SLP156 T02110189
KCRQ 310953Z AUTO 00000KT 8SM OVC008 21/19 A3001 RMK AO2 SLP159 T02060189
KCRQ 310853Z AUTO 21003KT 8SM OVC008 21/19 A3002 RMK AO2 SLP160 T02110189 58006
KCRQ 310753Z AUTO 23005KT 8SM OVC008 21/19 A3002 RMK AO2 SLP163 T02110189 402500206
KCRQ 310821Z 3108/0106 VRB05KT P6SM OVC008 
     FM311900 25008KT P6SM SCT012 SCT200 
     FM010200 VRB05KT P6SM BKN010